Portada
METAR-TAF:

METAR-TAF

Aeroports :

Door County Cherryland Airport

Sturgeon Bay, Wisconsin, Estats Units d'Amèrica

latitud: 44-51N, longitud: 087-25W, altitud: 221 m

Observació

L'informe es va fer fa 43 minuts, a les 06:56 UTC
Vent 7 kt del Nord/Nord-Est
Temperatura 13°C
Humitat 72%
Pressió 1022 hPa
Visibilitat: 16.1 km
Cel clar

METAR: KSUE 250656Z AUTO 03007KT 10SM CLR 13/08 A3018 RMK AO2 SLP235 T01330083

Hora: 02:39 (07:39 UTC)


TAF: manca

Observacions i pronòstics meteorològics de més de 4000 aeroports (METAR i TAF).

Les estacions disponibles són els punts grocs i vermells al mapa.

Posi el ratolí al punt desitjat per veure el nom de l'estació.

Feu clic per veure les observacions i els pronòstics meteorològics.

Per canviar el mapa: feu clic els botons verds amb una creu de color negre per apropar; al botó verd amb un guió per allunyar la imatge; o en les fletxes verdes per a mapes adjacents.


METAR-TAF: